Ace, Texas
Current Conditions -  °F | °C
As of 1:10 AM on Thursday 23 Oct 2014 (Local Time) from K6R3 Reporting Station
Clear Clear  
Wind Chill: 61°   Ceiling: Unl
Heat Index: 61°   Visibility: 10mi
Dew Point: 57°   Wind: 0mph
Humidity: 88%   Direction: NA
Pressure: 30.1"   Gusts: NA
Location:  30.54°N, 94.82°W
Report Text: K6R3 230610Z AUTO 00000KT 10SM CLR 16/14 A3010 RMK AO2 T01600140
Loading
Personal Weather Stations






























Interactive Weather Map
Tropical Storm Tracking
New forecast layout! Learn more

10-Day Weather Forecast

Advertisements
Track Severe Weather on mobile